createdAt,value
2022-10-25T00:01:30.578Z,0.40
2022-10-25T00:03:59.757Z,4.15
2022-10-25T00:06:30.522Z,0.98
2022-10-25T00:08:58.935Z,0.73
2022-10-25T00:11:32.270Z,0.30
2022-10-25T00:14:03.262Z,1.10
2022-10-25T00:16:36.081Z,0.30
2022-10-25T00:19:05.827Z,0.63
2022-10-25T00:21:34.761Z,1.55
2022-10-25T00:24:03.161Z,0.88
2022-10-25T00:26:31.585Z,0.40
2022-10-25T00:29:03.043Z,1.00
2022-10-25T00:31:31.338Z,1.40
2022-10-25T00:33:59.700Z,0.75
2022-10-25T00:36:28.840Z,1.70
2022-10-25T00:38:59.097Z,1.55
2022-10-25T00:41:29.984Z,2.83
2022-10-25T00:44:34.918Z,2.25
2022-10-25T00:47:29.985Z,1.63
2022-10-25T00:52:33.162Z,1.85
2022-10-25T00:55:04.447Z,0.50
2022-10-25T00:57:50.175Z,0.77
2022-10-25T01:00:18.603Z,0.57
2022-10-25T01:02:47.669Z,0.82
2022-10-25T01:05:18.135Z,1.48
2022-10-25T01:07:47.585Z,1.98
2022-10-25T01:10:17.823Z,2.00
2022-10-25T01:12:47.569Z,1.58
2022-10-25T01:15:20.080Z,0.65
2022-10-25T01:18:03.423Z,1.85
2022-10-25T01:21:08.378Z,1.52
2022-10-25T01:24:13.685Z,0.95
2022-10-25T01:27:03.020Z,0.52
2022-10-25T01:29:49.671Z,3.28
2022-10-25T01:32:29.186Z,0.55
2022-10-25T01:35:21.841Z,0.80
2022-10-25T01:37:58.461Z,1.13
2022-10-25T01:41:02.312Z,2.05
2022-10-25T01:43:42.629Z,1.23
2022-10-25T01:46:38.615Z,1.08
2022-10-25T01:49:14.144Z,0.98
2022-10-25T01:51:42.467Z,1.02
2022-10-25T01:54:26.140Z,1.70
2022-10-25T01:57:10.624Z,1.63
2022-10-25T01:59:56.547Z,0.60
2022-10-25T02:02:34.458Z,1.17
2022-10-25T02:05:17.025Z,2.33
2022-10-25T02:08:05.814Z,4.45
2022-10-25T02:10:45.668Z,2.58
2022-10-25T02:13:44.210Z,0.65
2022-10-25T02:16:19.846Z,3.95
2022-10-25T02:18:52.541Z,2.05
2022-10-25T02:21:24.221Z,2.00
2022-10-25T02:23:55.059Z,2.45
2022-10-25T02:26:24.219Z,2.72
2022-10-25T02:28:54.521Z,1.45
2022-10-25T02:31:24.752Z,1.00
2022-10-25T02:33:53.298Z,1.80
2022-10-25T02:36:25.830Z,2.78
2022-10-25T02:38:55.441Z,1.85
2022-10-25T02:41:25.291Z,1.83
2022-10-25T02:43:53.604Z,2.25
2022-10-25T02:46:23.864Z,3.35
2022-10-25T02:48:53.085Z,2.80
2022-10-25T02:51:21.370Z,1.75
2022-10-25T02:53:49.821Z,1.58
2022-10-25T02:56:21.506Z,1.95
2022-10-25T02:58:54.300Z,3.13
2022-10-25T03:01:22.723Z,2.13
2022-10-25T03:03:51.680Z,3.35
2022-10-25T03:06:20.200Z,2.67
2022-10-25T03:08:48.870Z,2.20
2022-10-25T03:11:18.773Z,1.95
2022-10-25T03:13:47.256Z,2.05
2022-10-25T03:16:15.513Z,3.00
2022-10-25T03:18:43.886Z,4.43
2022-10-25T03:21:12.237Z,1.30
2022-10-25T03:23:42.935Z,5.50
2022-10-25T03:26:11.401Z,1.92
2022-10-25T03:28:39.741Z,3.03
2022-10-25T03:31:16.861Z,2.55
2022-10-25T03:33:45.662Z,2.83
2022-10-25T03:36:13.982Z,3.85
2022-10-25T03:38:42.260Z,5.22
2022-10-25T03:41:10.615Z,5.90
2022-10-25T03:43:39.080Z,2.42
2022-10-25T03:46:07.745Z,3.10
2022-10-25T03:48:36.215Z,4.03
2022-10-25T03:51:04.550Z,3.28
2022-10-25T03:53:33.277Z,3.60
2022-10-25T03:56:01.665Z,6.53
2022-10-25T03:58:29.985Z,4.38
2022-10-25T04:01:00.939Z,3.97
2022-10-25T04:03:29.576Z,2.30
2022-10-25T04:05:57.841Z,2.67
2022-10-25T04:08:26.301Z,3.03
2022-10-25T04:10:54.760Z,3.40
2022-10-25T04:13:23.005Z,4.00
2022-10-25T04:15:51.418Z,2.67
2022-10-25T04:18:20.545Z,3.17
2022-10-25T04:20:48.880Z,5.68
2022-10-25T04:23:17.320Z,3.17
2022-10-25T04:25:48.707Z,2.67
2022-10-25T04:28:17.505Z,3.97
2022-10-25T04:30:45.825Z,2.22
2022-10-25T04:33:16.865Z,3.80
2022-10-25T04:35:45.471Z,4.47
2022-10-25T04:38:13.813Z,3.33
2022-10-25T04:40:42.145Z,5.80
2022-10-25T04:43:10.415Z,4.93
2022-10-25T04:45:38.785Z,4.13
2022-10-25T04:48:07.255Z,4.20
2022-10-25T04:50:35.905Z,3.85
2022-10-25T04:53:05.146Z,5.97
2022-10-25T04:55:34.160Z,6.00
2022-10-25T04:58:04.225Z,5.15
2022-10-25T05:00:32.713Z,3.90
2022-10-25T05:03:01.237Z,4.68
2022-10-25T05:05:31.638Z,5.85
2022-10-25T05:07:59.905Z,4.00
2022-10-25T05:10:31.230Z,4.57
2022-10-25T05:12:59.619Z,4.15
2022-10-25T05:15:27.895Z,5.30
2022-10-25T05:18:00.326Z,4.88
2022-10-25T05:20:29.235Z,3.42
2022-10-25T05:22:57.655Z,3.78
2022-10-25T05:25:25.984Z,4.32
2022-10-25T05:27:54.256Z,3.92
2022-10-25T05:30:22.541Z,4.50
2022-10-25T05:32:51.902Z,4.00
2022-10-25T05:35:20.176Z,4.25
2022-10-25T05:37:49.131Z,7.15
2022-10-25T05:40:17.496Z,5.10
2022-10-25T05:42:46.041Z,3.90
2022-10-25T05:45:14.522Z,5.88
2022-10-25T05:47:42.779Z,5.50
2022-10-25T05:50:13.216Z,4.60
2022-10-25T05:52:45.792Z,4.28
2022-10-25T05:55:14.469Z,6.20
2022-10-25T05:57:42.755Z,3.72
2022-10-25T06:00:14.511Z,5.45
2022-10-25T06:02:42.779Z,6.60
2022-10-25T06:05:11.102Z,7.63
2022-10-25T06:07:39.420Z,4.07
2022-10-25T06:10:10.590Z,6.45
2022-10-25T06:12:39.136Z,3.65
2022-10-25T06:15:08.415Z,3.50
2022-10-25T06:17:36.713Z,5.07
2022-10-25T06:20:05.335Z,6.50
2022-10-25T06:22:35.910Z,6.45
2022-10-25T06:25:06.441Z,6.80
2022-10-25T06:27:34.679Z,3.50
2022-10-25T06:30:03.102Z,4.38
2022-10-25T06:32:31.381Z,6.32
2022-10-25T06:34:59.645Z,5.78
2022-10-25T06:37:27.903Z,5.40
2022-10-25T06:39:56.344Z,5.75
2022-10-25T06:42:26.910Z,5.22
2022-10-25T06:44:55.255Z,5.28
2022-10-25T06:47:26.595Z,4.28
2022-10-25T06:49:54.820Z,6.20
2022-10-25T06:52:26.312Z,7.38
2022-10-25T06:54:54.623Z,5.15
2022-10-25T06:57:22.835Z,5.45
2022-10-25T06:59:51.135Z,4.53
2022-10-25T07:02:24.357Z,6.82
2022-10-25T07:04:54.946Z,7.88
2022-10-25T07:07:23.388Z,7.10
2022-10-25T07:09:51.735Z,5.47
2022-10-25T07:12:20.056Z,4.20
2022-10-25T07:14:48.348Z,6.55
2022-10-25T07:17:16.571Z,8.63
2022-10-25T07:19:47.441Z,6.95
2022-10-25T07:22:15.745Z,7.88
2022-10-25T07:24:44.081Z,5.30
2022-10-25T07:27:12.373Z,5.57
2022-10-25T07:29:40.611Z,5.03
2022-10-25T07:32:09.665Z,7.70
2022-10-25T07:34:37.956Z,5.30
2022-10-25T07:37:08.059Z,6.82
2022-10-25T07:39:36.382Z,6.75
2022-10-25T07:42:04.709Z,4.93
2022-10-25T07:44:33.087Z,7.25
2022-10-25T07:47:01.510Z,5.43
2022-10-25T07:49:29.785Z,5.50
2022-10-25T07:51:57.983Z,5.75
2022-10-25T07:54:26.307Z,8.57
2022-10-25T07:56:54.585Z,6.57
2022-10-25T07:59:22.938Z,5.35
2022-10-25T08:01:51.328Z,6.80
2022-10-25T08:04:19.769Z,6.88
2022-10-25T08:06:48.020Z,6.13
2022-10-25T08:09:36.887Z,6.05
2022-10-25T08:12:04.691Z,5.75
2022-10-25T08:14:39.607Z,6.13
2022-10-25T08:17:10.346Z,5.88
2022-10-25T08:19:38.918Z,5.78
2022-10-25T08:22:08.026Z,5.78
2022-10-25T08:24:37.027Z,5.20
2022-10-25T08:27:05.545Z,4.90
2022-10-25T08:29:33.821Z,4.70
2022-10-25T08:32:02.160Z,3.40
2022-10-25T08:34:33.071Z,6.53
2022-10-25T08:37:01.661Z,8.00
2022-10-25T08:39:29.955Z,6.47
2022-10-25T08:42:02.734Z,5.47
2022-10-25T08:44:45.678Z,4.72
2022-10-25T08:47:30.641Z,6.15
2022-10-25T08:52:35.608Z,4.90
2022-10-25T08:55:11.102Z,5.28
2022-10-25T08:57:42.630Z,6.53
2022-10-25T09:00:22.079Z,4.75
2022-10-25T09:02:53.821Z,5.30
2022-10-25T09:05:48.541Z,4.72
2022-10-25T09:08:31.452Z,4.13
2022-10-25T09:10:59.671Z,3.60
2022-10-25T09:16:19.740Z,3.22
2022-10-25T09:18:58.140Z,4.28
2022-10-25T09:22:06.625Z,3.53
2022-10-25T09:25:01.342Z,3.60
2022-10-25T09:27:32.320Z,4.38
2022-10-25T09:30:12.297Z,2.58
2022-10-25T09:32:41.820Z,4.97
2022-10-25T09:35:25.355Z,2.63
2022-10-25T09:38:09.720Z,2.97
2022-10-25T09:40:49.941Z,3.63
2022-10-25T09:43:49.185Z,3.20
2022-10-25T09:46:50.875Z,2.10
2022-10-25T09:49:26.145Z,1.88
2022-10-25T09:52:14.612Z,2.72
2022-10-25T09:55:16.892Z,4.85
2022-10-25T09:57:47.529Z,3.00
2022-10-25T10:00:17.044Z,3.38
2022-10-25T10:02:45.387Z,3.47
2022-10-25T10:05:19.060Z,3.25
2022-10-25T10:07:49.359Z,3.40
2022-10-25T10:10:22.238Z,4.30
2022-10-25T10:12:54.143Z,2.05
2022-10-25T10:15:53.836Z,1.85
2022-10-25T10:18:31.259Z,3.15
2022-10-25T10:21:05.502Z,3.42
2022-10-25T10:24:02.950Z,3.08
2022-10-25T10:26:46.282Z,2.10
2022-10-25T10:29:31.880Z,1.42
2022-10-25T10:32:07.552Z,3.33
2022-10-25T10:34:44.820Z,3.03
2022-10-25T10:37:26.785Z,2.83
2022-10-25T10:40:01.178Z,2.53
2022-10-25T10:42:38.469Z,2.45
2022-10-25T10:45:09.821Z,2.00
2022-10-25T10:47:39.743Z,2.00
2022-10-25T10:50:21.529Z,3.40
2022-10-25T10:53:23.561Z,2.40
2022-10-25T10:55:54.762Z,1.05
2022-10-25T10:58:32.863Z,3.65
2022-10-25T11:01:19.680Z,2.15
2022-10-25T11:03:58.942Z,4.20
2022-10-25T11:06:34.468Z,2.30
2022-10-25T11:09:26.775Z,4.18
2022-10-25T11:12:12.380Z,2.42
2022-10-25T11:14:40.853Z,1.17
2022-10-25T11:17:14.495Z,3.25
2022-10-25T11:20:07.261Z,1.55
2022-10-25T11:22:42.514Z,1.65
2022-10-25T11:25:21.821Z,1.88
2022-10-25T11:28:12.887Z,2.47
2022-10-25T11:30:57.500Z,2.55
2022-10-25T11:33:59.576Z,2.63
2022-10-25T11:36:41.659Z,2.67
2022-10-25T11:39:33.980Z,1.98
2022-10-25T11:42:39.428Z,1.58
2022-10-25T11:45:13.523Z,1.42
2022-10-25T11:48:18.581Z,3.03
2022-10-25T11:50:58.020Z,2.17
2022-10-25T11:54:05.624Z,2.17
2022-10-25T11:56:49.339Z,2.45
2022-10-25T11:59:31.261Z,8.55
2022-10-25T12:02:23.787Z,3.30
2022-10-25T12:05:11.439Z,4.07
2022-10-25T12:08:05.020Z,2.20
2022-10-25T12:10:40.912Z,2.58
2022-10-25T12:13:31.520Z,2.60
2022-10-25T12:16:00.700Z,1.85
2022-10-25T12:18:49.519Z,2.72
2022-10-25T12:21:28.819Z,3.15
2022-10-25T12:23:57.780Z,2.05
2022-10-25T12:26:36.384Z,3.22
2022-10-25T12:29:07.265Z,2.80
2022-10-25T12:31:41.817Z,2.60
2022-10-25T12:34:18.622Z,1.88
2022-10-25T12:37:02.483Z,1.95
2022-10-25T12:39:46.420Z,1.80
2022-10-25T12:42:25.917Z,5.15
2022-10-25T12:44:56.980Z,2.78
2022-10-25T12:47:58.935Z,3.10
2022-10-25T12:50:51.079Z,3.00
2022-10-25T12:53:46.570Z,3.67
2022-10-25T12:56:29.500Z,2.60
2022-10-25T12:59:16.226Z,3.42
2022-10-25T13:02:21.346Z,3.45
2022-10-25T13:05:29.105Z,2.28
2022-10-25T13:08:04.131Z,1.20
2022-10-25T13:10:42.945Z,2.28
2022-10-25T13:13:23.419Z,2.55
2022-10-25T13:15:57.240Z,1.77
2022-10-25T13:18:44.225Z,2.53
2022-10-25T13:21:24.749Z,1.88
2022-10-25T13:24:01.500Z,2.10
2022-10-25T13:26:33.420Z,2.13
2022-10-25T13:29:40.023Z,2.33
2022-10-25T13:32:25.501Z,2.30
2022-10-25T13:34:53.941Z,3.15
2022-10-25T13:37:34.947Z,3.72
2022-10-25T13:40:23.907Z,2.65
2022-10-25T13:43:04.841Z,2.95
2022-10-25T13:45:43.895Z,2.03
2022-10-25T13:48:17.170Z,2.80
2022-10-25T13:50:55.743Z,2.78
2022-10-25T13:53:43.976Z,1.77
2022-10-25T13:56:24.562Z,3.33
2022-10-25T13:58:57.830Z,2.08
2022-10-25T14:01:26.751Z,1.77
2022-10-25T14:04:04.378Z,2.13
2022-10-25T14:06:38.139Z,2.50
2022-10-25T14:09:27.547Z,0.83
2022-10-25T14:12:08.878Z,2.28
2022-10-25T14:14:51.678Z,3.35
2022-10-25T14:17:22.639Z,1.83
2022-10-25T14:19:58.463Z,4.60
2022-10-25T14:22:49.299Z,1.85
2022-10-25T14:25:26.945Z,2.40
2022-10-25T14:28:11.425Z,4.10
2022-10-25T14:30:57.239Z,5.75
2022-10-25T14:33:35.458Z,3.00
2022-10-25T14:36:26.420Z,4.32
2022-10-25T14:38:57.670Z,2.65
2022-10-25T14:41:31.589Z,3.15
2022-10-25T14:44:00.545Z,3.13
2022-10-25T14:46:35.233Z,2.20
2022-10-25T14:51:46.761Z,6.65
2022-10-25T14:54:23.401Z,4.35
2022-10-25T14:57:09.121Z,3.60
2022-10-25T14:59:47.254Z,3.78
2022-10-25T15:02:27.061Z,2.17
2022-10-25T15:05:00.880Z,2.38
2022-10-25T15:07:41.136Z,2.78
2022-10-25T15:10:32.076Z,2.20
2022-10-25T15:13:19.538Z,3.22
2022-10-25T15:15:55.281Z,2.72
2022-10-25T15:18:38.620Z,3.65
2022-10-25T15:21:07.095Z,3.30
2022-10-25T15:23:36.220Z,2.63
2022-10-25T15:26:24.687Z,2.40
2022-10-25T15:29:06.220Z,4.55
2022-10-25T15:31:34.903Z,2.50
2022-10-25T15:34:05.483Z,4.28
2022-10-25T15:36:36.540Z,3.10
2022-10-25T15:39:31.404Z,7.10
2022-10-25T15:41:59.788Z,5.22
2022-10-25T15:44:30.936Z,3.58
2022-10-25T15:46:59.268Z,4.90
2022-10-25T15:52:03.582Z,4.22
2022-10-25T15:54:34.461Z,7.50
2022-10-25T15:57:03.100Z,6.35
2022-10-25T15:59:33.881Z,6.72
2022-10-25T16:02:11.501Z,5.75
2022-10-25T16:04:39.868Z,5.25
2022-10-25T16:07:12.687Z,3.92
2022-10-25T16:09:41.209Z,4.45
2022-10-25T16:12:14.320Z,4.75
2022-10-25T16:14:42.637Z,4.38
2022-10-25T16:17:11.214Z,5.38
2022-10-25T16:19:39.585Z,5.30
2022-10-25T16:22:08.100Z,5.50
2022-10-25T16:24:36.445Z,3.83
2022-10-25T16:27:07.200Z,5.03
2022-10-25T16:29:35.471Z,4.35
2022-10-25T16:32:04.968Z,5.18
2022-10-25T16:34:36.533Z,5.32
2022-10-25T16:37:07.800Z,7.95
2022-10-25T16:39:38.944Z,4.55
2022-10-25T16:42:33.821Z,3.83
2022-10-25T16:45:03.583Z,4.47
2022-10-25T16:47:31.906Z,5.28
2022-10-25T16:50:05.777Z,6.65
2022-10-25T16:52:34.150Z,3.95
2022-10-25T16:55:02.478Z,4.53
2022-10-25T16:57:30.939Z,5.57
2022-10-25T16:59:59.266Z,3.53
2022-10-25T17:02:27.566Z,5.03
2022-10-25T17:04:56.010Z,3.97
2022-10-25T17:07:25.323Z,3.70
2022-10-25T17:09:56.003Z,3.90
2022-10-25T17:12:24.430Z,3.90
2022-10-25T17:14:55.747Z,3.63
2022-10-25T17:19:57.175Z,5.25
2022-10-25T17:22:26.305Z,6.95
2022-10-25T17:24:54.553Z,4.72
2022-10-25T17:27:27.700Z,2.65
2022-10-25T17:29:55.958Z,4.88
2022-10-25T17:32:26.501Z,2.78
2022-10-25T17:34:54.870Z,4.47
2022-10-25T17:37:23.423Z,5.38
2022-10-25T17:39:55.455Z,5.18
2022-10-25T17:42:23.905Z,3.60
2022-10-25T17:44:52.225Z,2.95
2022-10-25T17:47:20.540Z,4.28
2022-10-25T17:49:48.800Z,4.82
2022-10-25T17:52:17.093Z,4.93
2022-10-25T17:54:45.999Z,2.38
2022-10-25T17:57:14.468Z,2.90
2022-10-25T17:59:42.740Z,3.45
2022-10-25T18:02:16.246Z,4.75
2022-10-25T18:05:02.231Z,3.27
2022-10-25T18:07:35.339Z,1.92
2022-10-25T18:10:03.898Z,1.95
2022-10-25T18:12:32.371Z,1.73
2022-10-25T18:15:00.703Z,4.50
2022-10-25T18:17:29.031Z,1.90
2022-10-25T18:19:57.330Z,2.10
2022-10-25T18:22:25.663Z,1.90
2022-10-25T18:24:54.000Z,1.30
2022-10-25T18:27:22.302Z,3.58
2022-10-25T18:29:53.505Z,2.58
2022-10-25T18:32:32.219Z,1.73
2022-10-25T18:35:03.762Z,1.95
2022-10-25T18:37:32.040Z,1.58
2022-10-25T18:40:00.394Z,2.13
2022-10-25T18:42:28.705Z,1.95
2022-10-25T18:44:57.024Z,1.95
2022-10-25T18:47:25.358Z,3.63
2022-10-25T18:49:53.670Z,3.05
2022-10-25T18:52:24.080Z,2.78
2022-10-25T18:54:54.810Z,3.30
2022-10-25T18:57:23.050Z,4.30
2022-10-25T18:59:51.355Z,2.78
2022-10-25T19:02:19.938Z,4.03
2022-10-25T19:04:48.470Z,1.83
2022-10-25T19:07:16.810Z,0.85
2022-10-25T19:09:45.181Z,2.05
2022-10-25T19:12:13.515Z,2.75
2022-10-25T19:14:41.907Z,1.77
2022-10-25T19:17:10.441Z,2.08
2022-10-25T19:19:38.781Z,2.58
2022-10-25T19:22:07.101Z,2.50
2022-10-25T19:24:36.706Z,2.17
2022-10-25T19:27:05.022Z,1.95
2022-10-25T19:29:34.140Z,2.38
2022-10-25T19:32:02.453Z,1.42
2022-10-25T19:34:30.760Z,1.20
2022-10-25T19:37:02.492Z,2.35
2022-10-25T19:39:36.518Z,1.10
2022-10-25T19:42:08.421Z,1.83
2022-10-25T19:44:36.703Z,3.25
2022-10-25T19:47:05.290Z,3.35
2022-10-25T19:49:34.466Z,3.33
2022-10-25T19:52:02.781Z,0.93
2022-10-25T19:54:31.162Z,1.42
2022-10-25T19:56:59.702Z,1.65
2022-10-25T19:59:29.759Z,1.23
2022-10-25T20:01:58.155Z,1.52
2022-10-25T20:04:28.780Z,2.63
2022-10-25T20:06:57.141Z,1.38
2022-10-25T20:09:25.442Z,1.02
2022-10-25T20:11:53.760Z,1.67
2022-10-25T20:14:22.140Z,1.40
2022-10-25T20:16:50.740Z,3.58
2022-10-25T20:19:19.101Z,2.28
2022-10-25T20:21:47.392Z,3.10
2022-10-25T20:24:15.760Z,4.03
2022-10-25T20:26:45.655Z,3.65
2022-10-25T20:29:21.481Z,1.63
2022-10-25T20:31:51.641Z,0.70
2022-10-25T20:34:21.487Z,1.80
2022-10-25T20:36:50.371Z,0.80
2022-10-25T20:39:18.801Z,2.60
2022-10-25T20:41:47.161Z,1.52
2022-10-25T20:44:15.630Z,1.02
2022-10-25T20:46:44.389Z,1.77
2022-10-25T20:49:12.719Z,1.05
2022-10-25T20:51:41.055Z,2.42
2022-10-25T20:54:10.274Z,1.20
2022-10-25T20:56:40.225Z,2.97
2022-10-25T20:59:08.712Z,1.98
2022-10-25T21:01:37.530Z,1.05
2022-10-25T21:04:06.357Z,1.77
2022-10-25T21:06:34.728Z,0.63
2022-10-25T21:09:03.224Z,2.35
2022-10-25T21:11:31.905Z,3.58
2022-10-25T21:14:02.785Z,2.00
2022-10-25T21:16:33.658Z,1.80
2022-10-25T21:19:05.022Z,1.30
2022-10-25T21:21:33.351Z,1.58
2022-10-25T21:24:02.394Z,1.15
2022-10-25T21:26:33.140Z,3.75
2022-10-25T21:29:07.258Z,2.83
2022-10-25T21:31:35.586Z,2.15
2022-10-25T21:34:05.538Z,3.40
2022-10-25T21:36:33.961Z,1.27
2022-10-25T21:39:02.310Z,2.63
2022-10-25T21:41:31.023Z,2.15
2022-10-25T21:44:00.004Z,2.22
2022-10-25T21:46:29.671Z,2.17
2022-10-25T21:48:58.140Z,0.73
2022-10-25T21:51:26.625Z,1.73
2022-10-25T21:53:55.760Z,2.33
2022-10-25T21:56:24.861Z,3.30
2022-10-25T21:58:54.420Z,1.85
2022-10-25T22:01:25.007Z,1.00
2022-10-25T22:03:53.800Z,3.63
2022-10-25T22:06:24.372Z,2.50
2022-10-25T22:08:53.920Z,2.53
2022-10-25T22:11:25.185Z,2.85
2022-10-25T22:13:59.324Z,2.25
2022-10-25T22:16:28.427Z,3.33
2022-10-25T22:19:00.832Z,1.17
2022-10-25T22:21:34.121Z,0.68
2022-10-25T22:24:02.435Z,1.80
2022-10-25T22:26:31.081Z,1.58
2022-10-25T22:29:00.375Z,1.25
2022-10-25T22:31:30.682Z,2.58
2022-10-25T22:34:01.195Z,4.10
2022-10-25T22:36:32.660Z,5.13
2022-10-25T22:39:01.463Z,1.52
2022-10-25T22:41:30.956Z,2.58
2022-10-25T22:44:02.146Z,3.75
2022-10-25T22:46:33.655Z,2.58
2022-10-25T22:49:07.324Z,2.15
2022-10-25T22:51:37.022Z,2.53
2022-10-25T22:54:05.620Z,2.58
2022-10-25T22:56:34.445Z,1.70
2022-10-25T22:59:05.799Z,2.75
2022-10-25T23:01:38.628Z,3.70
2022-10-25T23:04:09.287Z,4.63
2022-10-25T23:06:40.703Z,3.92
2022-10-25T23:09:11.268Z,3.28
2022-10-25T23:11:41.800Z,4.15
2022-10-25T23:14:14.761Z,2.50
2022-10-25T23:16:46.466Z,2.10
2022-10-25T23:19:14.924Z,3.58
2022-10-25T23:21:45.462Z,3.80
2022-10-25T23:24:13.839Z,6.00
2022-10-25T23:26:42.149Z,2.70
2022-10-25T23:29:13.973Z,4.97
2022-10-25T23:31:42.378Z,5.30
2022-10-25T23:34:12.279Z,3.20
2022-10-25T23:36:40.824Z,2.28
2022-10-25T23:39:09.664Z,3.00
2022-10-25T23:41:40.375Z,3.40
2022-10-25T23:44:08.655Z,5.00
2022-10-25T23:46:37.031Z,4.68
2022-10-25T23:49:05.245Z,3.95
2022-10-25T23:51:36.025Z,5.07
2022-10-25T23:54:04.356Z,4.00
2022-10-25T23:56:32.825Z,4.15
2022-10-25T23:59:01.482Z,3.05
